sensor_id;sensor_type;location;lat;lon;timestamp;pressure;altitude;pressure_sealevel;temperature;humidity
67052;BME280;53957;47.222;18.670;2023-10-08T06:55:42;100258.91;;;18.73;77.29
67052;BME280;53957;47.222;18.670;2023-10-08T06:58:46;100259.00;;;18.76;80.71
67052;BME280;53957;47.222;18.670;2023-10-08T07:01:55;100258.34;;;18.79;73.67
67052;BME280;53957;47.222;18.670;2023-10-08T07:04:58;100259.84;;;19.02;73.66
67052;BME280;53957;47.222;18.670;2023-10-08T07:08:04;100242.38;;;19.11;69.60
67052;BME280;53957;47.222;18.670;2023-10-08T07:11:09;100265.47;;;19.21;69.14
67052;BME280;53957;47.222;18.670;2023-10-08T07:14:14;100260.22;;;19.41;67.74
67052;BME280;53957;47.222;18.670;2023-10-08T07:17:18;100251.00;;;19.42;67.20
67052;BME280;53957;47.222;18.670;2023-10-08T07:20:23;100248.16;;;19.51;70.02
67052;BME280;53957;47.222;18.670;2023-10-08T07:23:28;100257.69;;;19.60;71.33
67052;BME280;53957;47.222;18.670;2023-10-08T07:26:37;100246.41;;;19.83;72.87
67052;BME280;53957;47.222;18.670;2023-10-08T07:29:40;100254.34;;;20.20;65.52
67052;BME280;53957;47.222;18.670;2023-10-08T07:33:04;100238.97;;;20.40;66.04
67052;BME280;53957;47.222;18.670;2023-10-08T07:36:07;100261.75;;;20.23;65.53
67052;BME280;53957;47.222;18.670;2023-10-08T07:39:18;100247.00;;;20.37;62.76
67052;BME280;53957;47.222;18.670;2023-10-08T07:42:35;100248.69;;;20.57;62.15
67052;BME280;53957;47.222;18.670;2023-10-08T07:45:40;100263.91;;;20.46;63.49
67052;BME280;53957;47.222;18.670;2023-10-08T07:48:49;100258.38;;;20.42;67.83
67052;BME280;53957;47.222;18.670;2023-10-08T07:51:53;100265.78;;;20.30;66.74
67052;BME280;53957;47.222;18.670;2023-10-08T07:55:00;100270.75;;;20.72;63.48
67052;BME280;53957;47.222;18.670;2023-10-08T07:58:08;100255.00;;;21.29;61.52
67052;BME280;53957;47.222;18.670;2023-10-08T08:01:12;100242.41;;;21.57;60.95
67052;BME280;53957;47.222;18.670;2023-10-08T08:04:17;100251.84;;;22.02;62.47
67052;BME280;53957;47.222;18.670;2023-10-08T08:07:26;100264.97;;;22.00;59.78
67052;BME280;53957;47.222;18.670;2023-10-08T08:10:29;100245.66;;;22.05;58.91
67052;BME280;53957;47.222;18.670;2023-10-08T08:13:35;100269.91;;;22.14;57.93
67052;BME280;53957;47.222;18.670;2023-10-08T08:16:42;100267.09;;;22.30;59.35
67052;BME280;53957;47.222;18.670;2023-10-08T08:19:52;100262.22;;;22.19;57.80
67052;BME280;53957;47.222;18.670;2023-10-08T08:22:56;100266.81;;;22.15;59.06
67052;BME280;53957;47.222;18.670;2023-10-08T08:25:59;100284.19;;;22.11;57.22
67052;BME280;53957;47.222;18.670;2023-10-08T08:29:15;100280.28;;;21.88;59.88
67052;BME280;53957;47.222;18.670;2023-10-08T08:32:38;100284.94;;;21.88;64.42
67052;BME280;53957;47.222;18.670;2023-10-08T08:35:42;100277.28;;;21.74;63.04
67052;BME280;53957;47.222;18.670;2023-10-08T08:38:51;100279.72;;;21.79;63.69
67052;BME280;53957;47.222;18.670;2023-10-08T08:41:59;100257.56;;;21.58;64.22
67052;BME280;53957;47.222;18.670;2023-10-08T08:45:09;100241.75;;;21.44;63.65
67052;BME280;53957;47.222;18.670;2023-10-08T08:48:32;100243.13;;;21.53;64.54
67052;BME280;53957;47.222;18.670;2023-10-08T08:51:56;100241.06;;;21.31;64.61
67052;BME280;53957;47.222;18.670;2023-10-08T09:13:54;100285.50;;;21.42;70.39
67052;BME280;53957;47.222;18.670;2023-10-08T09:16:57;100300.53;;;21.20;69.18
67052;BME280;53957;47.222;18.670;2023-10-08T09:20:02;100303.75;;;21.26;66.57
67052;BME280;53957;47.222;18.670;2023-10-08T09:23:11;100307.31;;;21.30;69.74
67052;BME280;53957;47.222;18.670;2023-10-08T09:29:23;100316.06;;;21.39;69.06
67052;BME280;53957;47.222;18.670;2023-10-08T09:32:30;100313.09;;;21.28;67.66
67052;BME280;53957;47.222;18.670;2023-10-08T09:35:34;100324.16;;;21.19;67.48
67052;BME280;53957;47.222;18.670;2023-10-08T09:38:37;100317.25;;;21.06;70.44
67052;BME280;53957;47.222;18.670;2023-10-08T09:41:51;100325.19;;;21.15;68.05
67052;BME280;53957;47.222;18.670;2023-10-08T09:45:16;100346.69;;;21.23;68.93
67052;BME280;53957;47.222;18.670;2023-10-08T09:49:06;100358.19;;;21.17;70.86
67052;BME280;53957;47.222;18.670;2023-10-08T09:53:07;100342.19;;;21.12;70.16
67052;BME280;53957;47.222;18.670;2023-10-08T09:56:39;100353.03;;;21.28;69.09
67052;BME280;53957;47.222;18.670;2023-10-08T09:59:44;100345.09;;;21.54;68.17
67052;BME280;53957;47.222;18.670;2023-10-08T10:02:48;100361.72;;;21.69;65.80
67052;BME280;53957;47.222;18.670;2023-10-08T10:05:52;100361.53;;;21.62;67.42
67052;BME280;53957;47.222;18.670;2023-10-08T10:08:59;100346.78;;;21.79;65.74
67052;BME280;53957;47.222;18.670;2023-10-08T10:12:06;100363.22;;;21.86;68.37
67052;BME280;53957;47.222;18.670;2023-10-08T10:15:12;100356.31;;;21.88;66.08
67052;BME280;53957;47.222;18.670;2023-10-08T10:18:33;100347.22;;;21.81;65.40
67052;BME280;53957;47.222;18.670;2023-10-08T10:21:36;100376.22;;;21.77;67.55
67052;BME280;53957;47.222;18.670;2023-10-08T10:24:39;100377.00;;;21.77;65.47
67052;BME280;53957;47.222;18.670;2023-10-08T10:30:58;100378.72;;;21.50;70.36
67052;BME280;53957;47.222;18.670;2023-10-08T10:34:09;100393.16;;;21.54;73.60
67052;BME280;53957;47.222;18.670;2023-10-08T10:37:13;100421.78;;;21.19;79.36
67052;BME280;53957;47.222;18.670;2023-10-08T10:40:22;100417.06;;;21.00;82.23
67052;BME280;53957;47.222;18.670;2023-10-08T10:43:43;100426.56;;;20.78;82.86
67052;BME280;53957;47.222;18.670;2023-10-08T10:46:56;100433.66;;;20.70;84.84
67052;BME280;53957;47.222;18.670;2023-10-08T10:50:22;100443.69;;;20.54;82.47
67052;BME280;53957;47.222;18.670;2023-10-08T10:53:36;100450.22;;;20.12;78.95
67052;BME280;53957;47.222;18.670;2023-10-08T10:56:48;100453.06;;;19.78;82.38
67052;BME280;53957;47.222;18.670;2023-10-08T11:00:03;100462.44;;;19.69;83.12
67052;BME280;53957;47.222;18.670;2023-10-08T11:03:21;100455.75;;;19.29;81.71
67052;BME280;53957;47.222;18.670;2023-10-08T11:06:28;100459.81;;;19.23;79.47
67052;BME280;53957;47.222;18.670;2023-10-08T11:09:32;100471.37;;;19.11;78.18
67052;BME280;53957;47.222;18.670;2023-10-08T11:12:42;100474.97;;;19.03;78.02
67052;BME280;53957;47.222;18.670;2023-10-08T11:15:52;100464.75;;;18.87;79.18
67052;BME280;53957;47.222;18.670;2023-10-08T11:18:55;100469.50;;;18.90;78.81
67052;BME280;53957;47.222;18.670;2023-10-08T11:22:03;100472.44;;;18.97;80.75
67052;BME280;53957;47.222;18.670;2023-10-08T11:25:25;100470.44;;;18.94;79.55
67052;BME280;53957;47.222;18.670;2023-10-08T11:28:35;100471.22;;;18.74;76.36
67052;BME280;53957;47.222;18.670;2023-10-08T11:31:44;100468.38;;;18.70;79.10
67052;BME280;53957;47.222;18.670;2023-10-08T11:34:48;100471.63;;;18.63;76.86
67052;BME280;53957;47.222;18.670;2023-10-08T11:37:59;100481.31;;;18.43;80.43
67052;BME280;53957;47.222;18.670;2023-10-08T11:41:11;100484.41;;;18.54;81.42
67052;BME280;53957;47.222;18.670;2023-10-08T11:44:23;100481.69;;;18.54;79.24
67052;BME280;53957;47.222;18.670;2023-10-08T11:47:26;100503.78;;;18.35;81.32
67052;BME280;53957;47.222;18.670;2023-10-08T11:50:38;100503.56;;;18.19;81.51
67052;BME280;53957;47.222;18.670;2023-10-08T11:53:44;100508.69;;;18.12;83.96
67052;BME280;53957;47.222;18.670;2023-10-08T11:56:47;100520.03;;;17.96;85.87
67052;BME280;53957;47.222;18.670;2023-10-08T11:59:50;100518.13;;;17.88;85.91
67052;BME280;53957;47.222;18.670;2023-10-08T12:02:58;100529.34;;;17.60;89.26
67052;BME280;53957;47.222;18.670;2023-10-08T12:06:05;100537.00;;;17.58;89.69
67052;BME280;53957;47.222;18.670;2023-10-08T12:09:08;100540.31;;;17.55;86.12
67052;BME280;53957;47.222;18.670;2023-10-08T12:12:16;100552.13;;;17.24;86.45
67052;BME280;53957;47.222;18.670;2023-10-08T12:15:24;100561.16;;;17.11;86.10
67052;BME280;53957;47.222;18.670;2023-10-08T12:18:37;100569.41;;;17.05;86.42
67052;BME280;53957;47.222;18.670;2023-10-08T12:21:44;100573.22;;;17.04;87.41
67052;BME280;53957;47.222;18.670;2023-10-08T12:24:52;100573.97;;;16.79;82.72
67052;BME280;53957;47.222;18.670;2023-10-08T12:27:55;100580.28;;;16.74;83.87
67052;BME280;53957;47.222;18.670;2023-10-08T12:31:04;100590.44;;;16.68;84.95
67052;BME280;53957;47.222;18.670;2023-10-08T12:34:11;100594.84;;;16.64;85.33
67052;BME280;53957;47.222;18.670;2023-10-08T12:37:16;100582.78;;;16.53;84.70
67052;BME280;53957;47.222;18.670;2023-10-08T12:40:18;100601.19;;;16.51;85.35
67052;BME280;53957;47.222;18.670;2023-10-08T12:43:27;100597.22;;;16.57;86.77
67052;BME280;53957;47.222;18.670;2023-10-08T12:46:31;100598.50;;;16.51;88.18
67052;BME280;53957;47.222;18.670;2023-10-08T12:49:37;100591.53;;;16.58;85.19
67052;BME280;53957;47.222;18.670;2023-10-08T12:52:43;100605.16;;;16.62;83.97
67052;BME280;53957;47.222;18.670;2023-10-08T12:56:07;100624.19;;;16.66;86.45
67052;BME280;53957;47.222;18.670;2023-10-08T12:59:17;100634.09;;;16.48;83.82
67052;BME280;53957;47.222;18.670;2023-10-08T13:02:24;100633.91;;;16.35;87.44
67052;BME280;53957;47.222;18.670;2023-10-08T13:05:32;100644.44;;;16.14;89.28
67052;BME280;53957;47.222;18.670;2023-10-08T13:08:58;100650.59;;;16.15;87.62
67052;BME280;53957;47.222;18.670;2023-10-08T13:12:01;100645.56;;;16.22;87.71
67052;BME280;53957;47.222;18.670;2023-10-08T13:15:07;100644.53;;;16.00;85.50
67052;BME280;53957;47.222;18.670;2023-10-08T13:18:11;100656.38;;;15.99;88.59
67052;BME280;53957;47.222;18.670;2023-10-08T13:21:15;100658.53;;;15.88;87.11
67052;BME280;53957;47.222;18.670;2023-10-08T13:24:19;100662.38;;;15.73;88.80
67052;BME280;53957;47.222;18.670;2023-10-08T13:27:27;100679.66;;;15.58;87.83
67052;BME280;53957;47.222;18.670;2023-10-08T13:30:31;100686.53;;;15.51;86.91
67052;BME280;53957;47.222;18.670;2023-10-08T13:33:43;100686.66;;;15.45;88.25
67052;BME280;53957;47.222;18.670;2023-10-08T13:36:52;100690.94;;;15.46;86.75
67052;BME280;53957;47.222;18.670;2023-10-08T13:39:55;100693.38;;;15.34;84.50
67052;BME280;53957;47.222;18.670;2023-10-08T13:42:59;100696.06;;;15.34;88.18
67052;BME280;53957;47.222;18.670;2023-10-08T13:46:09;100696.97;;;15.29;83.82
67052;BME280;53957;47.222;18.670;2023-10-08T13:49:16;100711.84;;;14.99;82.81
67052;BME280;53957;47.222;18.670;2023-10-08T13:52:20;100710.16;;;15.03;81.94
67052;BME280;53957;47.222;18.670;2023-10-08T13:55:24;100706.09;;;14.92;84.16
67052;BME280;53957;47.222;18.670;2023-10-08T13:58:28;100702.97;;;14.98;82.64
67052;BME280;53957;47.222;18.670;2023-10-08T14:01:33;100713.53;;;14.81;84.36
67052;BME280;53957;47.222;18.670;2023-10-08T14:04:38;100725.97;;;14.91;82.36
67052;BME280;53957;47.222;18.670;2023-10-08T14:07:45;100726.28;;;14.89;82.57
67052;BME280;53957;47.222;18.670;2023-10-08T14:10:49;100727.75;;;14.81;83.99
67052;BME280;53957;47.222;18.670;2023-10-08T14:13:52;100712.50;;;14.63;87.58
67052;BME280;53957;47.222;18.670;2023-10-08T14:16:57;100724.97;;;14.73;87.82
67052;BME280;53957;47.222;18.670;2023-10-08T14:20:10;100730.06;;;14.74;83.50
67052;BME280;53957;47.222;18.670;2023-10-08T14:23:25;100720.09;;;14.75;87.49
67052;BME280;53957;47.222;18.670;2023-10-08T14:26:32;100718.31;;;14.70;86.94
67052;BME280;53957;47.222;18.670;2023-10-08T14:29:40;100717.22;;;14.71;88.30
67052;BME280;53957;47.222;18.670;2023-10-08T14:32:47;100723.25;;;14.63;87.76
67052;BME280;53957;47.222;18.670;2023-10-08T14:35:52;100736.75;;;14.58;86.69
67052;BME280;53957;47.222;18.670;2023-10-08T14:39:14;100731.59;;;14.47;87.36
67052;BME280;53957;47.222;18.670;2023-10-08T14:42:37;100749.88;;;14.45;86.36
67052;BME280;53957;47.222;18.670;2023-10-08T14:46:03;100752.94;;;14.39;85.29
67052;BME280;53957;47.222;18.670;2023-10-08T14:49:14;100756.81;;;14.32;84.76
67052;BME280;53957;47.222;18.670;2023-10-08T14:52:18;100747.47;;;14.30;83.00
67052;BME280;53957;47.222;18.670;2023-10-08T14:55:23;100748.97;;;14.36;83.51
67052;BME280;53957;47.222;18.670;2023-10-08T14:58:27;100773.06;;;14.22;84.71
67052;BME280;53957;47.222;18.670;2023-10-08T15:01:31;100779.81;;;14.20;84.50
67052;BME280;53957;47.222;18.670;2023-10-08T15:04:40;100777.31;;;14.09;85.71
67052;BME280;53957;47.222;18.670;2023-10-08T15:07:44;100772.84;;;14.18;86.00
67052;BME280;53957;47.222;18.670;2023-10-08T15:10:48;100768.81;;;14.21;84.85
67052;BME280;53957;47.222;18.670;2023-10-08T15:13:54;100770.31;;;14.27;86.15
67052;BME280;53957;47.222;18.670;2023-10-08T15:16:57;100778.91;;;14.10;85.21
67052;BME280;53957;47.222;18.670;2023-10-08T15:20:01;100781.16;;;14.03;88.59
67052;BME280;53957;47.222;18.670;2023-10-08T15:23:06;100798.16;;;14.12;86.28
67052;BME280;53957;47.222;18.670;2023-10-08T15:26:10;100800.78;;;13.98;85.94
67052;BME280;53957;47.222;18.670;2023-10-08T15:29:15;100793.91;;;13.92;83.88
67052;BME280;53957;47.222;18.670;2023-10-08T15:32:18;100797.06;;;14.13;84.28
67052;BME280;53957;47.222;18.670;2023-10-08T15:35:21;100795.22;;;13.95;84.74
67052;BME280;53957;47.222;18.670;2023-10-08T15:38:27;100814.94;;;14.04;84.66
67052;BME280;53957;47.222;18.670;2023-10-08T15:41:30;100809.06;;;14.02;82.93
67052;BME280;53957;47.222;18.670;2023-10-08T15:44:34;100809.50;;;13.90;83.82
67052;BME280;53957;47.222;18.670;2023-10-08T15:47:38;100828.47;;;13.94;83.70
67052;BME280;53957;47.222;18.670;2023-10-08T15:50:42;100828.22;;;13.95;82.04
67052;BME280;53957;47.222;18.670;2023-10-08T15:53:45;100824.34;;;13.82;84.85
67052;BME280;53957;47.222;18.670;2023-10-08T15:56:49;100826.69;;;13.89;84.66
67052;BME280;53957;47.222;18.670;2023-10-08T16:00:01;100820.13;;;13.76;82.28
67052;BME280;53957;47.222;18.670;2023-10-08T16:03:05;100818.12;;;13.68;82.05
67052;BME280;53957;47.222;18.670;2023-10-08T16:06:09;100824.19;;;13.74;82.29
67052;BME280;53957;47.222;18.670;2023-10-08T16:09:12;100845.84;;;13.58;83.63
67052;BME280;53957;47.222;18.670;2023-10-08T16:12:16;100841.88;;;13.56;83.77
67052;BME280;53957;47.222;18.670;2023-10-08T16:15:20;100838.75;;;13.48;82.28
67052;BME280;53957;47.222;18.670;2023-10-08T16:18:24;100855.06;;;13.47;82.35
67052;BME280;53957;47.222;18.670;2023-10-08T16:21:28;100853.72;;;13.49;80.40
67052;BME280;53957;47.222;18.670;2023-10-08T16:24:31;100869.75;;;13.55;80.56
67052;BME280;53957;47.222;18.670;2023-10-08T16:27:34;100874.03;;;13.56;78.22
67052;BME280;53957;47.222;18.670;2023-10-08T16:30:38;100870.47;;;13.36;79.13
67052;BME280;53957;47.222;18.670;2023-10-08T16:33:41;100869.34;;;13.37;79.30
67052;BME280;53957;47.222;18.670;2023-10-08T16:36:44;100884.19;;;13.29;81.76
67052;BME280;53957;47.222;18.670;2023-10-08T16:39:48;100884.13;;;13.34;79.66
67052;BME280;53957;47.222;18.670;2023-10-08T16:42:51;100890.63;;;13.28;80.51
67052;BME280;53957;47.222;18.670;2023-10-08T16:45:54;100892.56;;;13.23;79.15
67052;BME280;53957;47.222;18.670;2023-10-08T16:48:58;100891.50;;;13.24;77.88
67052;BME280;53957;47.222;18.670;2023-10-08T16:52:01;100901.16;;;13.19;78.02
67052;BME280;53957;47.222;18.670;2023-10-08T16:55:07;100901.22;;;13.14;77.73
67052;BME280;53957;47.222;18.670;2023-10-08T16:58:09;100906.28;;;13.16;77.10
67052;BME280;53957;47.222;18.670;2023-10-08T17:01:13;100915.91;;;13.17;77.76
67052;BME280;53957;47.222;18.670;2023-10-08T17:04:17;100909.84;;;13.06;80.43
67052;BME280;53957;47.222;18.670;2023-10-08T17:07:21;100915.69;;;13.13;76.67
67052;BME280;53957;47.222;18.670;2023-10-08T17:10:45;100928.09;;;13.04;75.28
67052;BME280;53957;47.222;18.670;2023-10-08T17:13:55;100943.97;;;12.95;78.70
67052;BME280;53957;47.222;18.670;2023-10-08T17:16:59;100948.56;;;12.89;78.54
67052;BME280;53957;47.222;18.670;2023-10-08T17:20:06;100952.56;;;12.92;77.35
67052;BME280;53957;47.222;18.670;2023-10-08T17:23:12;100959.28;;;12.89;80.09
67052;BME280;53957;47.222;18.670;2023-10-08T17:26:17;100959.50;;;12.93;78.17
67052;BME280;53957;47.222;18.670;2023-10-08T17:29:21;100960.78;;;13.01;78.82
67052;BME280;53957;47.222;18.670;2023-10-08T17:32:24;100959.81;;;12.92;78.89
67052;BME280;53957;47.222;18.670;2023-10-08T17:35:28;100965.25;;;12.76;81.62
67052;BME280;53957;47.222;18.670;2023-10-08T17:38:31;100970.91;;;12.75;83.18
67052;BME280;53957;47.222;18.670;2023-10-08T17:41:37;100986.78;;;12.61;84.94
67052;BME280;53957;47.222;18.670;2023-10-08T17:44:41;100995.06;;;12.64;85.07
67052;BME280;53957;47.222;18.670;2023-10-08T19:20:14;101086.16;;;10.78;100.00
67052;BME280;53957;47.222;18.670;2023-10-08T19:23:20;101086.34;;;10.61;100.00
67052;BME280;53957;47.222;18.670;2023-10-08T19:26:23;101098.59;;;10.52;100.00
67052;BME280;53957;47.222;18.670;2023-10-08T19:29:30;101099.06;;;10.39;100.00
67052;BME280;53957;47.222;18.670;2023-10-08T19:32:36;101097.09;;;10.24;100.00
67052;BME280;53957;47.222;18.670;2023-10-08T19:35:39;101096.25;;;10.18;100.00
67052;BME280;53957;47.222;18.670;2023-10-08T19:38:42;101097.25;;;10.07;100.00
67052;BME280;53957;47.222;18.670;2023-10-08T19:41:47;101083.38;;;10.05;100.00
67052;BME280;53957;47.222;18.670;2023-10-08T19:44:51;101081.72;;;9.93;100.00
67052;BME280;53957;47.222;18.670;2023-10-08T19:47:54;101082.53;;;9.94;100.00
67052;BME280;53957;47.222;18.670;2023-10-08T19:50:57;101089.53;;;9.67;100.00
67052;BME280;53957;47.222;18.670;2023-10-08T19:54:01;101086.91;;;9.73;100.00
67052;BME280;53957;47.222;18.670;2023-10-08T19:57:04;101095.91;;;9.66;100.00
67052;BME280;53957;47.222;18.670;2023-10-08T20:00:09;101105.00;;;9.71;100.00
67052;BME280;53957;47.222;18.670;2023-10-08T20:03:40;101091.44;;;9.72;100.00
67052;BME280;53957;47.222;18.670;2023-10-08T20:06:43;101091.44;;;9.72;100.00
67052;BME280;53957;47.222;18.670;2023-10-08T20:09:48;101090.69;;;9.77;100.00
67052;BME280;53957;47.222;18.670;2023-10-08T20:12:52;101079.22;;;9.81;100.00
67052;BME280;53957;47.222;18.670;2023-10-08T20:15:58;101078.03;;;9.99;100.00
67052;BME280;53957;47.222;18.670;2023-10-08T20:19:01;101082.72;;;9.82;100.00
67052;BME280;53957;47.222;18.670;2023-10-08T20:22:10;101083.28;;;9.84;100.00
67052;BME280;53957;47.222;18.670;2023-10-08T20:25:16;101078.50;;;9.91;100.00
67052;BME280;53957;47.222;18.670;2023-10-08T20:28:28;101069.16;;;9.89;100.00
67052;BME280;53957;47.222;18.670;2023-10-08T20:31:31;101079.59;;;9.95;100.00
67052;BME280;53957;47.222;18.670;2023-10-08T20:34:34;101089.75;;;9.98;100.00
67052;BME280;53957;47.222;18.670;2023-10-08T20:37:37;101098.25;;;9.95;100.00
67052;BME280;53957;47.222;18.670;2023-10-08T20:40:42;101098.44;;;9.83;99.53
67052;BME280;53957;47.222;18.670;2023-10-08T20:43:46;101106.69;;;9.82;100.00
67052;BME280;53957;47.222;18.670;2023-10-08T20:46:50;101096.75;;;9.72;98.77
67052;BME280;53957;47.222;18.670;2023-10-08T20:49:53;101113.53;;;9.73;98.35
67052;BME280;53957;47.222;18.670;2023-10-08T20:52:57;101131.13;;;9.74;98.59
67052;BME280;53957;47.222;18.670;2023-10-08T20:56:05;101132.44;;;9.71;99.45
67052;BME280;53957;47.222;18.670;2023-10-08T20:59:08;101138.78;;;9.65;98.14
67052;BME280;53957;47.222;18.670;2023-10-08T21:02:11;101147.72;;;9.48;99.52
67052;BME280;53957;47.222;18.670;2023-10-08T21:05:15;101148.00;;;9.52;97.38
67052;BME280;53957;47.222;18.670;2023-10-08T21:08:18;101147.53;;;9.60;96.65
67052;BME280;53957;47.222;18.670;2023-10-08T21:11:23;101142.91;;;9.50;95.58
67052;BME280;53957;47.222;18.670;2023-10-08T21:14:27;101140.09;;;9.62;96.64
67052;BME280;53957;47.222;18.670;2023-10-08T21:17:32;101149.91;;;9.57;97.30
67052;BME280;53957;47.222;18.670;2023-10-08T21:20:35;101155.78;;;9.59;96.38
67052;BME280;53957;47.222;18.670;2023-10-08T21:23:40;101179.87;;;9.47;96.69
67052;BME280;53957;47.222;18.670;2023-10-08T21:26:43;101189.97;;;9.40;97.91
67052;BME280;53957;47.222;18.670;2023-10-08T21:29:48;101185.87;;;9.32;97.60
67052;BME280;53957;47.222;18.670;2023-10-08T21:32:53;101182.31;;;9.21;97.87
67052;BME280;53957;47.222;18.670;2023-10-08T21:35:56;101175.47;;;9.30;96.54
67052;BME280;53957;47.222;18.670;2023-10-08T21:38:59;101184.34;;;9.36;98.11
67052;BME280;53957;47.222;18.670;2023-10-08T21:42:02;101177.13;;;9.37;98.55
67052;BME280;53957;47.222;18.670;2023-10-08T21:45:06;101198.06;;;9.28;99.74
67052;BME280;53957;47.222;18.670;2023-10-08T21:48:11;101186.63;;;9.27;100.00
67052;BME280;53957;47.222;18.670;2023-10-08T21:51:14;101188.09;;;9.40;99.89
67052;BME280;53957;47.222;18.670;2023-10-08T21:54:17;101175.69;;;9.24;100.00
67052;BME280;53957;47.222;18.670;2023-10-08T21:57:21;101182.41;;;9.31;100.00
67052;BME280;53957;47.222;18.670;2023-10-08T22:00:24;101182.37;;;9.26;100.00
67052;BME280;53957;47.222;18.670;2023-10-08T22:03:29;101198.66;;;9.30;100.00
67052;BME280;53957;47.222;18.670;2023-10-08T22:06:32;101204.66;;;9.20;100.00
67052;BME280;53957;47.222;18.670;2023-10-08T22:09:40;101197.78;;;9.24;100.00
67052;BME280;53957;47.222;18.670;2023-10-08T22:12:44;101182.47;;;9.14;100.00
67052;BME280;53957;47.222;18.670;2023-10-08T22:15:50;101185.16;;;9.14;100.00
67052;BME280;53957;47.222;18.670;2023-10-08T22:18:57;101193.94;;;9.15;100.00
67052;BME280;53957;47.222;18.670;2023-10-08T22:22:00;101208.25;;;9.09;100.00
67052;BME280;53957;47.222;18.670;2023-10-08T22:25:04;101205.19;;;9.00;100.00
67052;BME280;53957;47.222;18.670;2023-10-08T22:28:10;101209.28;;;8.85;100.00
67052;BME280;53957;47.222;18.670;2023-10-08T22:31:20;101217.81;;;8.88;100.00
67052;BME280;53957;47.222;18.670;2023-10-08T22:34:24;101216.66;;;8.78;100.00
67052;BME280;53957;47.222;18.670;2023-10-08T22:37:31;101215.81;;;8.78;100.00
67052;BME280;53957;47.222;18.670;2023-10-08T22:40:57;101223.56;;;8.79;100.00
67052;BME280;53957;47.222;18.670;2023-10-08T22:44:02;101215.03;;;8.77;100.00
67052;BME280;53957;47.222;18.670;2023-10-08T22:47:05;101227.75;;;8.75;100.00
67052;BME280;53957;47.222;18.670;2023-10-08T22:50:11;101230.66;;;8.74;100.00
67052;BME280;53957;47.222;18.670;2023-10-08T22:53:35;101224.22;;;8.86;100.00
67052;BME280;53957;47.222;18.670;2023-10-08T22:56:42;101222.91;;;8.50;100.00
67052;BME280;53957;47.222;18.670;2023-10-08T22:59:45;101236.66;;;8.47;100.00
67052;BME280;53957;47.222;18.670;2023-10-08T23:02:49;101237.59;;;8.41;100.00
67052;BME280;53957;47.222;18.670;2023-10-08T23:05:54;101235.69;;;8.36;100.00
67052;BME280;53957;47.222;18.670;2023-10-08T23:09:00;101243.13;;;8.51;100.00
